sensor_id;sensor_type;location;lat;lon;timestamp;pressure;altitude;pressure_sealevel;temperature;humidity
22335;BME280;11335;43.848;25.958;2022-09-01T00:00:47;100833.97;;;24.58;100.00
22335;BME280;11335;43.848;25.958;2022-09-01T00:03:35;100829.78;;;24.67;100.00
22335;BME280;11335;43.848;25.958;2022-09-01T00:06:23;100829.97;;;24.28;100.00
22335;BME280;11335;43.848;25.958;2022-09-01T00:09:12;100830.38;;;24.47;100.00
22335;BME280;11335;43.848;25.958;2022-09-01T00:11:58;100830.41;;;24.58;100.00
22335;BME280;11335;43.848;25.958;2022-09-01T00:14:44;100835.81;;;24.09;100.00
22335;BME280;11335;43.848;25.958;2022-09-01T00:17:29;100835.13;;;23.81;100.00
22335;BME280;11335;43.848;25.958;2022-09-01T00:20:15;100838.03;;;23.90;100.00
22335;BME280;11335;43.848;25.958;2022-09-01T00:23:01;100834.19;;;24.07;100.00
22335;BME280;11335;43.848;25.958;2022-09-01T00:25:47;100833.84;;;24.11;100.00
22335;BME280;11335;43.848;25.958;2022-09-01T00:28:34;100838.56;;;23.95;100.00
22335;BME280;11335;43.848;25.958;2022-09-01T00:31:21;100838.22;;;23.87;100.00
22335;BME280;11335;43.848;25.958;2022-09-01T00:34:07;100827.78;;;23.97;100.00
22335;BME280;11335;43.848;25.958;2022-09-01T00:36:53;100828.63;;;23.72;100.00
22335;BME280;11335;43.848;25.958;2022-09-01T00:39:39;100815.13;;;23.74;100.00
22335;BME280;11335;43.848;25.958;2022-09-01T00:42:24;100817.69;;;23.88;100.00
22335;BME280;11335;43.848;25.958;2022-09-01T00:45:10;100813.63;;;23.82;100.00
22335;BME280;11335;43.848;25.958;2022-09-01T00:47:56;100813.00;;;24.04;100.00
22335;BME280;11335;43.848;25.958;2022-09-01T00:50:42;100812.50;;;24.35;100.00
22335;BME280;11335;43.848;25.958;2022-09-01T00:53:28;100822.28;;;23.73;100.00
22335;BME280;11335;43.848;25.958;2022-09-01T00:56:14;100821.13;;;24.02;100.00
22335;BME280;11335;43.848;25.958;2022-09-01T00:59:00;100825.69;;;24.25;100.00
22335;BME280;11335;43.848;25.958;2022-09-01T01:01:47;100824.09;;;23.73;100.00
22335;BME280;11335;43.848;25.958;2022-09-01T01:04:32;100828.81;;;23.57;100.00
22335;BME280;11335;43.848;25.958;2022-09-01T01:07:19;100827.25;;;23.92;100.00
22335;BME280;11335;43.848;25.958;2022-09-01T01:10:08;100827.53;;;23.87;100.00
22335;BME280;11335;43.848;25.958;2022-09-01T01:12:56;100827.19;;;24.17;100.00
22335;BME280;11335;43.848;25.958;2022-09-01T01:15:45;100829.00;;;24.29;100.00
22335;BME280;11335;43.848;25.958;2022-09-01T01:18:31;100833.75;;;24.13;100.00
22335;BME280;11335;43.848;25.958;2022-09-01T01:21:28;100835.03;;;24.20;100.00
22335;BME280;11335;43.848;25.958;2022-09-01T01:24:37;100826.56;;;24.26;100.00
22335;BME280;11335;43.848;25.958;2022-09-01T01:27:23;100830.19;;;24.37;100.00
22335;BME280;11335;43.848;25.958;2022-09-01T01:30:10;100837.16;;;23.52;100.00
22335;BME280;11335;43.848;25.958;2022-09-01T01:32:56;100836.31;;;23.77;100.00
22335;BME280;11335;43.848;25.958;2022-09-01T01:35:43;100842.66;;;23.63;100.00
22335;BME280;11335;43.848;25.958;2022-09-01T01:38:29;100834.81;;;23.60;100.00
22335;BME280;11335;43.848;25.958;2022-09-01T01:41:16;100839.84;;;23.65;100.00
22335;BME280;11335;43.848;25.958;2022-09-01T01:44:04;100836.41;;;23.75;100.00
22335;BME280;11335;43.848;25.958;2022-09-01T01:46:51;100836.75;;;23.46;100.00
22335;BME280;11335;43.848;25.958;2022-09-01T01:49:39;100835.75;;;23.07;100.00
22335;BME280;11335;43.848;25.958;2022-09-01T01:52:28;100842.59;;;23.25;100.00
22335;BME280;11335;43.848;25.958;2022-09-01T01:55:14;100837.00;;;23.02;100.00
22335;BME280;11335;43.848;25.958;2022-09-01T01:58:03;100845.59;;;23.07;100.00
22335;BME280;11335;43.848;25.958;2022-09-01T02:00:51;100851.72;;;23.48;100.00
22335;BME280;11335;43.848;25.958;2022-09-01T02:03:38;100844.47;;;22.84;100.00
22335;BME280;11335;43.848;25.958;2022-09-01T02:06:25;100845.69;;;23.05;100.00
22335;BME280;11335;43.848;25.958;2022-09-01T02:09:13;100849.63;;;23.00;100.00
22335;BME280;11335;43.848;25.958;2022-09-01T02:11:59;100855.88;;;23.52;100.00
22335;BME280;11335;43.848;25.958;2022-09-01T02:14:45;100857.34;;;23.31;100.00
22335;BME280;11335;43.848;25.958;2022-09-01T02:17:32;100853.81;;;23.04;100.00
22335;BME280;11335;43.848;25.958;2022-09-01T02:20:18;100857.28;;;23.58;100.00
22335;BME280;11335;43.848;25.958;2022-09-01T02:23:06;100845.25;;;23.25;100.00
22335;BME280;11335;43.848;25.958;2022-09-01T02:25:57;100854.56;;;23.06;100.00
22335;BME280;11335;43.848;25.958;2022-09-01T02:28:47;100850.94;;;23.07;100.00
22335;BME280;11335;43.848;25.958;2022-09-01T02:31:36;100858.66;;;23.51;100.00
22335;BME280;11335;43.848;25.958;2022-09-01T02:34:26;100862.63;;;23.18;100.00
22335;BME280;11335;43.848;25.958;2022-09-01T02:37:13;100861.41;;;22.43;100.00
22335;BME280;11335;43.848;25.958;2022-09-01T02:40:00;100853.50;;;22.27;100.00
22335;BME280;11335;43.848;25.958;2022-09-01T02:42:46;100863.69;;;22.63;100.00
22335;BME280;11335;43.848;25.958;2022-09-01T02:45:32;100865.69;;;22.59;100.00
22335;BME280;11335;43.848;25.958;2022-09-01T02:48:19;100855.81;;;22.74;100.00
22335;BME280;11335;43.848;25.958;2022-09-01T02:51:12;100858.34;;;22.63;100.00
22335;BME280;11335;43.848;25.958;2022-09-01T02:53:58;100853.81;;;22.77;100.00
22335;BME280;11335;43.848;25.958;2022-09-01T02:56:45;100858.81;;;22.96;100.00
22335;BME280;11335;43.848;25.958;2022-09-01T02:59:32;100852.97;;;22.77;100.00
22335;BME280;11335;43.848;25.958;2022-09-01T03:02:19;100856.06;;;23.10;100.00
22335;BME280;11335;43.848;25.958;2022-09-01T03:05:04;100863.00;;;22.73;100.00
22335;BME280;11335;43.848;25.958;2022-09-01T03:07:54;100858.72;;;22.57;100.00
22335;BME280;11335;43.848;25.958;2022-09-01T03:10:43;100860.06;;;22.90;100.00
22335;BME280;11335;43.848;25.958;2022-09-01T03:13:31;100856.13;;;22.96;100.00
22335;BME280;11335;43.848;25.958;2022-09-01T03:16:16;100858.84;;;22.82;100.00
22335;BME280;11335;43.848;25.958;2022-09-01T03:19:04;100860.25;;;23.14;100.00
22335;BME280;11335;43.848;25.958;2022-09-01T03:21:53;100866.34;;;23.42;100.00
22335;BME280;11335;43.848;25.958;2022-09-01T03:24:44;100871.75;;;22.75;100.00
22335;BME280;11335;43.848;25.958;2022-09-01T03:27:30;100876.91;;;22.78;100.00
22335;BME280;11335;43.848;25.958;2022-09-01T03:30:16;100866.75;;;23.10;100.00
22335;BME280;11335;43.848;25.958;2022-09-01T03:33:02;100875.00;;;22.80;100.00
22335;BME280;11335;43.848;25.958;2022-09-01T03:35:48;100879.13;;;22.98;100.00
22335;BME280;11335;43.848;25.958;2022-09-01T03:38:34;100879.28;;;22.83;100.00
22335;BME280;11335;43.848;25.958;2022-09-01T03:41:22;100882.44;;;22.75;100.00
22335;BME280;11335;43.848;25.958;2022-09-01T03:44:10;100883.03;;;22.66;100.00
22335;BME280;11335;43.848;25.958;2022-09-01T03:46:56;100880.88;;;22.59;100.00
22335;BME280;11335;43.848;25.958;2022-09-01T03:49:42;100876.25;;;22.75;100.00
22335;BME280;11335;43.848;25.958;2022-09-01T03:52:29;100882.59;;;22.86;100.00
22335;BME280;11335;43.848;25.958;2022-09-01T03:55:16;100874.66;;;22.58;100.00
22335;BME280;11335;43.848;25.958;2022-09-01T03:58:08;100871.75;;;22.75;100.00
22335;BME280;11335;43.848;25.958;2022-09-01T04:00:57;100867.69;;;22.96;100.00
22335;BME280;11335;43.848;25.958;2022-09-01T04:03:47;100871.41;;;22.67;100.00
22335;BME280;11335;43.848;25.958;2022-09-01T04:06:33;100881.16;;;22.26;100.00
22335;BME280;11335;43.848;25.958;2022-09-01T04:09:21;100868.69;;;22.55;100.00
22335;BME280;11335;43.848;25.958;2022-09-01T04:12:07;100870.75;;;22.50;100.00
22335;BME280;11335;43.848;25.958;2022-09-01T04:14:58;100874.00;;;22.13;100.00
22335;BME280;11335;43.848;25.958;2022-09-01T04:17:45;100873.34;;;22.23;100.00
22335;BME280;11335;43.848;25.958;2022-09-01T04:20:55;100874.75;;;22.43;100.00
22335;BME280;11335;43.848;25.958;2022-09-01T04:23:41;100875.72;;;22.28;100.00
22335;BME280;11335;43.848;25.958;2022-09-01T04:26:29;100875.53;;;22.31;100.00
22335;BME280;11335;43.848;25.958;2022-09-01T04:29:17;100876.88;;;22.38;100.00
22335;BME280;11335;43.848;25.958;2022-09-01T04:32:09;100883.66;;;22.29;100.00
22335;BME280;11335;43.848;25.958;2022-09-01T04:34:57;100877.63;;;22.12;100.00
22335;BME280;11335;43.848;25.958;2022-09-01T04:37:42;100886.31;;;22.15;100.00
22335;BME280;11335;43.848;25.958;2022-09-01T04:40:28;100883.81;;;21.84;100.00
22335;BME280;11335;43.848;25.958;2022-09-01T04:43:14;100889.81;;;21.58;100.00
22335;BME280;11335;43.848;25.958;2022-09-01T04:46:01;100885.38;;;21.59;100.00
22335;BME280;11335;43.848;25.958;2022-09-01T04:48:51;100891.84;;;21.69;100.00
22335;BME280;11335;43.848;25.958;2022-09-01T04:51:42;100882.31;;;21.80;100.00
22335;BME280;11335;43.848;25.958;2022-09-01T04:54:28;100888.50;;;21.51;100.00
22335;BME280;11335;43.848;25.958;2022-09-01T04:57:17;100875.81;;;21.84;100.00
22335;BME280;11335;43.848;25.958;2022-09-01T05:00:03;100877.84;;;21.95;100.00
22335;BME280;11335;43.848;25.958;2022-09-01T05:02:55;100877.81;;;22.09;100.00
22335;BME280;11335;43.848;25.958;2022-09-01T05:05:47;100882.78;;;22.29;100.00
22335;BME280;11335;43.848;25.958;2022-09-01T05:08:33;100880.97;;;22.15;100.00
22335;BME280;11335;43.848;25.958;2022-09-01T05:11:19;100883.16;;;22.23;100.00
22335;BME280;11335;43.848;25.958;2022-09-01T05:14:05;100876.50;;;22.30;100.00
22335;BME280;11335;43.848;25.958;2022-09-01T05:16:58;100879.13;;;22.44;100.00
22335;BME280;11335;43.848;25.958;2022-09-01T05:19:47;100881.56;;;22.48;100.00
22335;BME280;11335;43.848;25.958;2022-09-01T05:22:33;100881.63;;;22.87;100.00
22335;BME280;11335;43.848;25.958;2022-09-01T05:25:20;100877.28;;;22.18;100.00
22335;BME280;11335;43.848;25.958;2022-09-01T05:28:07;100882.94;;;22.68;100.00
22335;BME280;11335;43.848;25.958;2022-09-01T05:30:54;100878.75;;;22.64;100.00
22335;BME280;11335;43.848;25.958;2022-09-01T05:33:40;100876.88;;;22.52;100.00
22335;BME280;11335;43.848;25.958;2022-09-01T05:36:30;100882.50;;;22.47;100.00
22335;BME280;11335;43.848;25.958;2022-09-01T05:39:18;100877.34;;;22.85;100.00
22335;BME280;11335;43.848;25.958;2022-09-01T05:42:05;100874.41;;;22.89;100.00
22335;BME280;11335;43.848;25.958;2022-09-01T05:44:54;100876.25;;;23.01;100.00
22335;BME280;11335;43.848;25.958;2022-09-01T05:47:40;100869.94;;;23.02;100.00
22335;BME280;11335;43.848;25.958;2022-09-01T05:50:26;100871.91;;;23.13;100.00
22335;BME280;11335;43.848;25.958;2022-09-01T05:53:12;100872.56;;;23.16;100.00
22335;BME280;11335;43.848;25.958;2022-09-01T05:56:05;100878.84;;;22.76;100.00
22335;BME280;11335;43.848;25.958;2022-09-01T05:58:53;100867.97;;;22.65;100.00
22335;BME280;11335;43.848;25.958;2022-09-01T06:01:39;100871.53;;;22.92;100.00
22335;BME280;11335;43.848;25.958;2022-09-01T06:04:26;100874.84;;;22.96;100.00
22335;BME280;11335;43.848;25.958;2022-09-01T06:07:13;100880.81;;;23.52;100.00
22335;BME280;11335;43.848;25.958;2022-09-01T06:09:59;100880.06;;;23.51;100.00
22335;BME280;11335;43.848;25.958;2022-09-01T06:12:45;100890.06;;;23.86;100.00
22335;BME280;11335;43.848;25.958;2022-09-01T06:15:33;100883.81;;;23.61;100.00
22335;BME280;11335;43.848;25.958;2022-09-01T06:18:21;100888.91;;;23.38;100.00
22335;BME280;11335;43.848;25.958;2022-09-01T06:21:10;100888.44;;;23.71;100.00
22335;BME280;11335;43.848;25.958;2022-09-01T06:23:59;100897.38;;;23.45;100.00
22335;BME280;11335;43.848;25.958;2022-09-01T06:26:45;100890.31;;;23.96;100.00
22335;BME280;11335;43.848;25.958;2022-09-01T06:29:31;100892.84;;;23.72;100.00
22335;BME280;11335;43.848;25.958;2022-09-01T06:32:17;100889.16;;;23.61;100.00
22335;BME280;11335;43.848;25.958;2022-09-01T06:35:04;100896.31;;;24.24;100.00
22335;BME280;11335;43.848;25.958;2022-09-01T06:37:53;100900.38;;;24.30;100.00
22335;BME280;11335;43.848;25.958;2022-09-01T06:40:39;100904.09;;;24.40;100.00
22335;BME280;11335;43.848;25.958;2022-09-01T06:43:26;100905.91;;;24.39;100.00
22335;BME280;11335;43.848;25.958;2022-09-01T06:46:18;100897.72;;;24.66;100.00
22335;BME280;11335;43.848;25.958;2022-09-01T06:49:04;100901.28;;;24.66;100.00
22335;BME280;11335;43.848;25.958;2022-09-01T06:51:50;100905.44;;;24.83;100.00
22335;BME280;11335;43.848;25.958;2022-09-01T06:54:39;100906.16;;;25.08;100.00
22335;BME280;11335;43.848;25.958;2022-09-01T06:57:42;100902.66;;;24.72;100.00
22335;BME280;11335;43.848;25.958;2022-09-01T07:00:38;100912.47;;;24.96;100.00
22335;BME280;11335;43.848;25.958;2022-09-01T07:03:26;100910.50;;;24.98;100.00
22335;BME280;11335;43.848;25.958;2022-09-01T07:06:13;100924.53;;;25.02;100.00
22335;BME280;11335;43.848;25.958;2022-09-01T07:08:59;100914.56;;;25.04;100.00
22335;BME280;11335;43.848;25.958;2022-09-01T07:11:46;100906.25;;;24.83;100.00
22335;BME280;11335;43.848;25.958;2022-09-01T07:14:32;100903.03;;;24.91;100.00
22335;BME280;11335;43.848;25.958;2022-09-01T07:17:18;100910.28;;;24.53;100.00
22335;BME280;11335;43.848;25.958;2022-09-01T07:20:04;100904.66;;;24.81;100.00
22335;BME280;11335;43.848;25.958;2022-09-01T07:22:57;100900.34;;;24.91;100.00
22335;BME280;11335;43.848;25.958;2022-09-01T07:25:48;100908.03;;;25.31;100.00
22335;BME280;11335;43.848;25.958;2022-09-01T07:28:35;100910.41;;;25.81;100.00
22335;BME280;11335;43.848;25.958;2022-09-01T07:31:32;100900.22;;;25.63;100.00
22335;BME280;11335;43.848;25.958;2022-09-01T07:34:21;100896.72;;;25.73;100.00
22335;BME280;11335;43.848;25.958;2022-09-01T07:37:07;100903.97;;;25.49;100.00
22335;BME280;11335;43.848;25.958;2022-09-01T07:39:52;100903.41;;;25.68;100.00
22335;BME280;11335;43.848;25.958;2022-09-01T07:42:40;100905.09;;;26.03;100.00
22335;BME280;11335;43.848;25.958;2022-09-01T07:45:26;100899.38;;;26.08;100.00
22335;BME280;11335;43.848;25.958;2022-09-01T07:48:12;100897.53;;;26.41;100.00
22335;BME280;11335;43.848;25.958;2022-09-01T07:50:59;100890.59;;;26.28;100.00
22335;BME280;11335;43.848;25.958;2022-09-01T07:53:47;100890.44;;;26.40;100.00
22335;BME280;11335;43.848;25.958;2022-09-01T07:56:34;100878.75;;;26.30;100.00
22335;BME280;11335;43.848;25.958;2022-09-01T07:59:21;100888.31;;;26.99;100.00
22335;BME280;11335;43.848;25.958;2022-09-01T08:02:07;100883.56;;;27.02;100.00
22335;BME280;11335;43.848;25.958;2022-09-01T08:04:53;100894.69;;;27.40;100.00
22335;BME280;11335;43.848;25.958;2022-09-01T08:07:39;100890.91;;;27.64;100.00
22335;BME280;11335;43.848;25.958;2022-09-01T08:10:25;100884.72;;;27.20;100.00
22335;BME280;11335;43.848;25.958;2022-09-01T08:13:11;100894.38;;;27.55;100.00
22335;BME280;11335;43.848;25.958;2022-09-01T08:15:57;100887.28;;;27.74;100.00
22335;BME280;11335;43.848;25.958;2022-09-01T08:18:43;100880.72;;;27.47;100.00
22335;BME280;11335;43.848;25.958;2022-09-01T08:21:29;100884.97;;;28.11;100.00
22335;BME280;11335;43.848;25.958;2022-09-01T08:24:15;100876.94;;;28.20;100.00
22335;BME280;11335;43.848;25.958;2022-09-01T08:27:01;100871.09;;;28.45;100.00
22335;BME280;11335;43.848;25.958;2022-09-01T08:29:47;100869.97;;;28.97;100.00
22335;BME280;11335;43.848;25.958;2022-09-01T08:32:33;100870.25;;;28.94;98.66
22335;BME280;11335;43.848;25.958;2022-09-01T08:35:19;100863.47;;;29.28;94.61
22335;BME280;11335;43.848;25.958;2022-09-01T08:38:06;100869.97;;;28.97;94.25
22335;BME280;11335;43.848;25.958;2022-09-01T08:40:55;100863.78;;;29.34;90.49
22335;BME280;11335;43.848;25.958;2022-09-01T08:47:08;100868.03;;;29.08;91.95
22335;BME280;11335;43.848;25.958;2022-09-01T08:49:55;100856.00;;;28.63;94.85
22335;BME280;11335;43.848;25.958;2022-09-01T08:52:48;100857.09;;;29.10;93.87
22335;BME280;11335;43.848;25.958;2022-09-01T08:55:43;100856.81;;;29.22;91.51
22335;BME280;11335;43.848;25.958;2022-09-01T08:58:30;100854.81;;;29.24;93.17
22335;BME280;11335;43.848;25.958;2022-09-01T09:01:24;100852.53;;;29.67;88.26
22335;BME280;11335;43.848;25.958;2022-09-01T09:07:51;100855.94;;;29.50;88.16
22335;BME280;11335;43.848;25.958;2022-09-01T09:10:58;100843.44;;;29.59;88.12
22335;BME280;11335;43.848;25.958;2022-09-01T09:16:53;100838.91;;;29.69;87.23
22335;BME280;11335;43.848;25.958;2022-09-01T09:19:40;100823.69;;;29.49;85.83
22335;BME280;11335;43.848;25.958;2022-09-01T09:22:27;100838.19;;;29.57;85.68
22335;BME280;11335;43.848;25.958;2022-09-01T09:25:15;100835.03;;;29.52;85.30
22335;BME280;11335;43.848;25.958;2022-09-01T09:28:02;100834.94;;;29.63;84.64
22335;BME280;11335;43.848;25.958;2022-09-01T09:30:47;100825.97;;;29.63;83.70
22335;BME280;11335;43.848;25.958;2022-09-01T09:33:36;100827.97;;;30.16;81.04
22335;BME280;11335;43.848;25.958;2022-09-01T09:36:30;100824.50;;;29.78;81.89
22335;BME280;11335;43.848;25.958;2022-09-01T09:39:17;100813.75;;;30.41;79.27
22335;BME280;11335;43.848;25.958;2022-09-01T09:42:06;100813.94;;;29.94;87.10
22335;BME280;11335;43.848;25.958;2022-09-01T09:44:54;100821.22;;;29.74;89.69
22335;BME280;11335;43.848;25.958;2022-09-01T09:47:43;100818.91;;;29.14;93.47
22335;BME280;11335;43.848;25.958;2022-09-01T09:50:36;100805.25;;;29.90;88.98
22335;BME280;11335;43.848;25.958;2022-09-01T09:56:19;100810.97;;;29.87;86.77
22335;BME280;11335;43.848;25.958;2022-09-01T10:11:48;100781.59;;;30.38;80.86
22335;BME280;11335;43.848;25.958;2022-09-01T10:14:47;100785.09;;;30.21;83.12
22335;BME280;11335;43.848;25.958;2022-09-01T10:17:40;100784.22;;;29.38;83.47
22335;BME280;11335;43.848;25.958;2022-09-01T10:20:27;100781.72;;;30.19;80.68
22335;BME280;11335;43.848;25.958;2022-09-01T10:23:13;100775.72;;;30.43;77.99
22335;BME280;11335;43.848;25.958;2022-09-01T10:26:13;100785.38;;;29.91;81.29
22335;BME280;11335;43.848;25.958;2022-09-01T10:29:07;100781.09;;;29.89;82.96
22335;BME280;11335;43.848;25.958;2022-09-01T10:31:55;100773.13;;;30.24;80.13
22335;BME280;11335;43.848;25.958;2022-09-01T10:34:41;100772.84;;;30.27;79.32
22335;BME280;11335;43.848;25.958;2022-09-01T10:37:28;100771.00;;;30.45;79.30
22335;BME280;11335;43.848;25.958;2022-09-01T10:43:32;100773.16;;;30.68;75.14
22335;BME280;11335;43.848;25.958;2022-09-01T10:52:03;100762.34;;;30.41;73.65
22335;BME280;11335;43.848;25.958;2022-09-01T10:54:52;100752.63;;;29.94;76.69
22335;BME280;11335;43.848;25.958;2022-09-01T11:03:35;100747.59;;;30.09;74.13
22335;BME280;11335;43.848;25.958;2022-09-01T11:06:32;100742.66;;;30.31;77.09
22335;BME280;11335;43.848;25.958;2022-09-01T11:12:43;100741.75;;;31.10;69.57
22335;BME280;11335;43.848;25.958;2022-09-01T11:15:35;100738.22;;;30.92;69.87
22335;BME280;11335;43.848;25.958;2022-09-01T11:18:28;100741.69;;;30.85;68.46
22335;BME280;11335;43.848;25.958;2022-09-01T11:21:29;100733.66;;;30.58;68.63
22335;BME280;11335;43.848;25.958;2022-09-01T11:30:36;100725.13;;;31.05;67.42
22335;BME280;11335;43.848;25.958;2022-09-01T11:33:52;100720.53;;;30.80;66.04
22335;BME280;11335;43.848;25.958;2022-09-01T11:39:41;100709.16;;;31.20;68.29
22335;BME280;11335;43.848;25.958;2022-09-01T11:42:39;100704.66;;;31.54;63.66
22335;BME280;11335;43.848;25.958;2022-09-01T11:45:31;100706.69;;;32.11;62.64
22335;BME280;11335;43.848;25.958;2022-09-01T11:48:21;100708.63;;;32.35;62.72
22335;BME280;11335;43.848;25.958;2022-09-01T11:51:07;100703.81;;;32.29;60.03
22335;BME280;11335;43.848;25.958;2022-09-01T11:53:57;100705.06;;;32.42;59.64
22335;BME280;11335;43.848;25.958;2022-09-01T11:56:45;100708.41;;;32.28;58.79
22335;BME280;11335;43.848;25.958;2022-09-01T11:59:32;100691.50;;;32.34;58.63
22335;BME280;11335;43.848;25.958;2022-09-01T12:02:20;100688.97;;;32.49;59.01
22335;BME280;11335;43.848;25.958;2022-09-01T12:08:13;100690.88;;;31.73;62.71
22335;BME280;11335;43.848;25.958;2022-09-01T12:11:10;100683.88;;;32.30;58.46
22335;BME280;11335;43.848;25.958;2022-09-01T12:16:55;100686.34;;;32.07;57.16
22335;BME280;11335;43.848;25.958;2022-09-01T12:19:42;100682.22;;;31.95;59.10
22335;BME280;11335;43.848;25.958;2022-09-01T12:22:28;100682.81;;;32.23;57.34
22335;BME280;11335;43.848;25.958;2022-09-01T12:25:25;100668.75;;;32.27;57.33
22335;BME280;11335;43.848;25.958;2022-09-01T12:28:12;100677.44;;;32.31;55.89
22335;BME280;11335;43.848;25.958;2022-09-01T12:31:02;100666.28;;;32.42;54.72
22335;BME280;11335;43.848;25.958;2022-09-01T12:33:50;100664.69;;;32.23;55.79
22335;BME280;11335;43.848;25.958;2022-09-01T12:36:36;100674.91;;;32.37;56.54
22335;BME280;11335;43.848;25.958;2022-09-01T12:39:23;100669.66;;;32.52;58.80
22335;BME280;11335;43.848;25.958;2022-09-01T12:42:33;100661.97;;;32.23;58.08
22335;BME280;11335;43.848;25.958;2022-09-01T12:48:27;100655.28;;;32.83;54.88
22335;BME280;11335;43.848;25.958;2022-09-01T12:51:24;100660.88;;;32.74;55.88
22335;BME280;11335;43.848;25.958;2022-09-01T12:54:10;100656.78;;;32.62;55.71
22335;BME280;11335;43.848;25.958;2022-09-01T12:56:56;100648.47;;;32.47;55.58
22335;BME280;11335;43.848;25.958;2022-09-01T12:59:42;100652.72;;;32.50;57.68
22335;BME280;11335;43.848;25.958;2022-09-01T13:02:34;100652.22;;;32.05;56.57
22335;BME280;11335;43.848;25.958;2022-09-01T13:05:42;100648.91;;;32.19;55.54
22335;BME280;11335;43.848;25.958;2022-09-01T13:08:33;100644.16;;;32.29;55.61
22335;BME280;11335;43.848;25.958;2022-09-01T13:11:22;100637.53;;;32.15;55.40
22335;BME280;11335;43.848;25.958;2022-09-01T13:14:08;100625.84;;;32.15;55.67
22335;BME280;11335;43.848;25.958;2022-09-01T13:16:54;100632.03;;;31.83;57.94
22335;BME280;11335;43.848;25.958;2022-09-01T13:19:40;100620.19;;;31.92;59.03
22335;BME280;11335;43.848;25.958;2022-09-01T13:22:26;100627.19;;;31.69;59.13
22335;BME280;11335;43.848;25.958;2022-09-01T13:25:14;100626.94;;;32.38;56.75
22335;BME280;11335;43.848;25.958;2022-09-01T13:28:02;100627.84;;;32.13;55.94
22335;BME280;11335;43.848;25.958;2022-09-01T13:30:53;100631.19;;;31.83;57.32
22335;BME280;11335;43.848;25.958;2022-09-01T13:33:39;100625.59;;;31.84;57.05
22335;BME280;11335;43.848;25.958;2022-09-01T13:36:25;100629.31;;;31.83;59.01
22335;BME280;11335;43.848;25.958;2022-09-01T13:39:11;100624.66;;;31.68;57.90
22335;BME280;11335;43.848;25.958;2022-09-01T13:41:57;100629.41;;;32.07;56.46
22335;BME280;11335;43.848;25.958;2022-09-01T13:44:44;100627.09;;;31.79;57.57
22335;BME280;11335;43.848;25.958;2022-09-01T13:47:30;100621.94;;;32.09;57.12
22335;BME280;11335;43.848;25.958;2022-09-01T13:50:18;100625.03;;;32.38;55.46
22335;BME280;11335;43.848;25.958;2022-09-01T13:53:05;100625.66;;;32.08;55.71
22335;BME280;11335;43.848;25.958;2022-09-01T13:55:51;100625.13;;;32.05;54.25
22335;BME280;11335;43.848;25.958;2022-09-01T13:58:37;100623.94;;;31.91;55.46
22335;BME280;11335;43.848;25.958;2022-09-01T14:01:23;100628.84;;;31.62;57.49
22335;BME280;11335;43.848;25.958;2022-09-01T14:04:09;100623.84;;;31.75;58.40
22335;BME280;11335;43.848;25.958;2022-09-01T14:06:55;100626.47;;;31.93;57.68
22335;BME280;11335;43.848;25.958;2022-09-01T14:09:41;100622.97;;;31.33;59.66
22335;BME280;11335;43.848;25.958;2022-09-01T14:12:27;100634.38;;;31.78;57.65
22335;BME280;11335;43.848;25.958;2022-09-01T14:15:16;100626.81;;;31.98;57.48
22335;BME280;11335;43.848;25.958;2022-09-01T14:18:03;100629.59;;;31.72;58.08
22335;BME280;11335;43.848;25.958;2022-09-01T14:20:50;100626.00;;;31.72;58.62
22335;BME280;11335;43.848;25.958;2022-09-01T14:23:36;100621.63;;;31.71;58.55
22335;BME280;11335;43.848;25.958;2022-09-01T14:26:22;100626.38;;;31.69;58.27
22335;BME280;11335;43.848;25.958;2022-09-01T14:29:08;100622.84;;;31.17;59.61
22335;BME280;11335;43.848;25.958;2022-09-01T14:31:54;100619.81;;;31.46;59.00
22335;BME280;11335;43.848;25.958;2022-09-01T14:34:42;100614.81;;;31.07;61.36
22335;BME280;11335;43.848;25.958;2022-09-01T14:37:28;100608.16;;;30.94;64.04
22335;BME280;11335;43.848;25.958;2022-09-01T14:40:16;100610.47;;;31.14;62.88
22335;BME280;11335;43.848;25.958;2022-09-01T14:43:06;100610.47;;;30.89;62.34
22335;BME280;11335;43.848;25.958;2022-09-01T14:46:05;100599.97;;;31.11;63.52
22335;BME280;11335;43.848;25.958;2022-09-01T14:48:51;100608.22;;;31.02;62.19
22335;BME280;11335;43.848;25.958;2022-09-01T14:51:37;100601.56;;;31.22;62.21
22335;BME280;11335;43.848;25.958;2022-09-01T14:54:23;100614.78;;;30.74;64.26
22335;BME280;11335;43.848;25.958;2022-09-01T14:57:10;100604.19;;;30.63;64.95
22335;BME280;11335;43.848;25.958;2022-09-01T14:59:56;100604.19;;;30.45;64.86
22335;BME280;11335;43.848;25.958;2022-09-01T15:02:42;100610.84;;;30.51;65.34
22335;BME280;11335;43.848;25.958;2022-09-01T15:05:28;100605.88;;;30.64;65.75
22335;BME280;11335;43.848;25.958;2022-09-01T15:08:15;100614.78;;;30.74;66.56
22335;BME280;11335;43.848;25.958;2022-09-01T15:11:01;100614.78;;;30.74;67.33
22335;BME280;11335;43.848;25.958;2022-09-01T15:13:47;100614.09;;;30.37;68.10
22335;BME280;11335;43.848;25.958;2022-09-01T15:16:39;100605.59;;;30.32;69.34
22335;BME280;11335;43.848;25.958;2022-09-01T15:19:26;100605.13;;;30.54;68.66
22335;BME280;11335;43.848;25.958;2022-09-01T15:22:11;100607.19;;;30.60;68.80